Du har inga inställningar för hoppväder.nu

Hoppväder.nu

Senast uppdaterat 05:25

UTC-tid

2020-01-29 kl. 04:25


Sol och måne

Solen går upp 8:04 och går ner 16:30 (beräknade cirkatider)
Nästa fullmåne blir om 11 dagar (2020-02-09)

METAR

ESMK (Everöd)
(35 minuter sedan)
ESMK 290350Z AUTO 28004KT 9999 BKN011/// OVC100/// 04/03 Q0988=



ESMS (Malmö)
(35 minuter sedan)
ESMS 290350Z 27013KT 9999 FEW010 OVC035 04/02 Q0989=



ESMX (Växjö)
(35 minuter sedan)
ESMX 290350Z AUTO 20003KT 3300 BR FEW018/// BKN029/// 02/02 Q0987=



ESDF (Ronneby)
(35 minuter sedan)
ESDF 290350Z AUTO 29004KT 4000 BR FEW010/// BKN049/// 03/03 Q0988=



EKRN (Rønne, Bornholm)
(35 minuter sedan)
EKRN 290350Z AUTO 30013KT 9999 // OVC008/// 05/05 Q0989=



TAF

ESMK (Everöd)
ESMK



ESMS (Malmö)
(317 minuter sedan)
ESMS 282308Z 2900/2924 26008KT 9999 BKN020 TEMPO 2900/2924 4000 -SHRA BR BKN006 SCT015CB BECMG 2921/2924 26012G25KT=



ESMX (Växjö)
ESMX



ESDF (Ronneby)
ESDF



EKRN (Rønne, Bornholm)
EKRN





Kodnycklar till TAF och METAR






LHP

(Everöd är område J3b i Hela Område E)

Prognos är inte uppdaterad




Spotting

Hur fungerar spotthjälpen och Vindkartan?

Markvind är ca 0 m/s.
Vind på 600 m ca 0 m/s.
Vind på 1500 m ca 0 m/s.
Vind på 3000 m ca 0 m/s.
KalleDavid flyger ca 44 m/s över marken på finalen.
Du driver ca 0 m bakåt i frifall. (0 m)
Lämplig spot är 6 sekunder eller 262 m innan gropen.
(-6s eller -262 m)
För små grupper eller ensamhoppare bör man vänta 3-5 sekunder mellan grupperna.
För större grupper bör man vänta 7-9 sekunder mellan grupperna.


Vindkartan

Senast uppdaterad 05:25




All data kommer från LFV.se